createdAt,value
2023-05-15T00:00:23.765Z,84.58
2023-05-15T00:02:50.276Z,84.83
2023-05-15T00:05:16.868Z,85.08
2023-05-15T00:07:43.415Z,85.04
2023-05-15T00:10:10.136Z,85.17
2023-05-15T00:12:36.908Z,85.44
2023-05-15T00:15:03.492Z,85.80
2023-05-15T00:17:29.853Z,86.10
2023-05-15T00:19:58.935Z,86.16
2023-05-15T00:22:26.133Z,86.34
2023-05-15T00:24:53.344Z,86.30
2023-05-15T00:27:19.815Z,86.35
2023-05-15T00:29:46.156Z,86.25
2023-05-15T00:32:12.545Z,86.23
2023-05-15T00:34:39.005Z,86.33
2023-05-15T00:37:05.502Z,86.39
2023-05-15T00:39:31.945Z,86.54
2023-05-15T00:42:01.975Z,86.49
2023-05-15T00:44:31.409Z,86.63
2023-05-15T00:46:59.355Z,86.74
2023-05-15T00:49:29.350Z,86.59
2023-05-15T00:52:02.067Z,86.52
2023-05-15T00:54:28.603Z,87.00
2023-05-15T00:56:59.655Z,87.01
2023-05-15T00:59:30.189Z,87.32
2023-05-15T01:01:56.706Z,87.10
2023-05-15T01:04:23.401Z,87.14
2023-05-15T01:06:51.352Z,86.91
2023-05-15T01:09:19.062Z,86.98
2023-05-15T01:11:47.314Z,86.95
2023-05-15T01:14:13.755Z,87.38
2023-05-15T01:16:41.402Z,87.46
2023-05-15T01:19:07.923Z,87.62
2023-05-15T01:21:37.494Z,87.55
2023-05-15T01:24:28.206Z,87.84
2023-05-15T01:27:16.549Z,87.56
2023-05-15T01:30:01.489Z,87.66
2023-05-15T01:32:47.068Z,87.74
2023-05-15T01:35:21.087Z,88.03
2023-05-15T01:37:54.465Z,87.99
2023-05-15T01:40:25.741Z,87.77
2023-05-15T01:42:55.982Z,87.81
2023-05-15T01:45:25.307Z,87.61
2023-05-15T01:47:54.204Z,87.66
2023-05-15T01:50:22.001Z,87.83
2023-05-15T01:52:53.770Z,88.01
2023-05-15T01:55:22.419Z,87.93
2023-05-15T01:57:51.288Z,87.57
2023-05-15T02:00:18.684Z,87.94
2023-05-15T02:02:46.622Z,88.08
2023-05-15T02:05:14.537Z,88.40
2023-05-15T02:07:45.274Z,88.26
2023-05-15T02:10:12.978Z,89.18
2023-05-15T02:12:42.662Z,89.22
2023-05-15T02:15:10.766Z,89.79
2023-05-15T02:17:37.914Z,90.17
2023-05-15T02:20:06.128Z,90.35
2023-05-15T02:22:34.307Z,90.93
2023-05-15T02:25:00.878Z,90.95
2023-05-15T02:27:32.026Z,91.37
2023-05-15T02:30:01.182Z,91.28
2023-05-15T02:32:40.964Z,91.54
2023-05-15T02:35:31.806Z,91.49
2023-05-15T02:38:02.817Z,91.24
2023-05-15T02:40:30.601Z,91.30
2023-05-15T02:42:57.801Z,91.14
2023-05-15T02:45:25.869Z,90.99
2023-05-15T02:47:53.429Z,91.21
2023-05-15T02:50:20.233Z,91.08
2023-05-15T02:52:46.733Z,91.22
2023-05-15T02:55:13.174Z,91.29
2023-05-15T02:57:39.553Z,91.12
2023-05-15T03:00:08.994Z,90.88
2023-05-15T03:02:36.115Z,91.21
2023-05-15T03:05:02.589Z,91.08
2023-05-15T03:07:29.028Z,90.68
2023-05-15T03:09:55.617Z,90.62
2023-05-15T03:12:21.987Z,90.60
2023-05-15T03:14:48.482Z,90.87
2023-05-15T03:17:14.984Z,90.93
2023-05-15T03:19:41.436Z,91.01
2023-05-15T03:22:07.890Z,90.85
2023-05-15T03:24:34.260Z,91.22
2023-05-15T03:27:00.622Z,91.10
2023-05-15T03:29:27.096Z,91.22
2023-05-15T03:31:53.449Z,91.27
2023-05-15T03:34:19.889Z,91.11
2023-05-15T03:36:46.333Z,91.36
2023-05-15T03:39:12.753Z,91.25
2023-05-15T03:41:39.241Z,91.05
2023-05-15T03:44:05.861Z,91.38
2023-05-15T03:46:32.411Z,91.44
2023-05-15T03:48:58.887Z,91.01
2023-05-15T03:51:25.679Z,90.57
2023-05-15T03:53:52.146Z,90.67
2023-05-15T03:56:18.610Z,90.50
2023-05-15T03:58:45.088Z,90.83
2023-05-15T04:01:11.419Z,90.60
2023-05-15T04:03:37.853Z,90.45
2023-05-15T04:06:04.621Z,90.69
2023-05-15T04:08:31.159Z,90.37
2023-05-15T04:10:57.615Z,90.62
2023-05-15T04:13:24.058Z,90.30
2023-05-15T04:15:50.628Z,90.28
2023-05-15T04:18:17.053Z,90.08
2023-05-15T04:20:43.472Z,90.13
2023-05-15T04:23:10.047Z,90.29
2023-05-15T04:25:36.617Z,89.78
2023-05-15T04:28:03.044Z,89.76
2023-05-15T04:30:29.667Z,89.71
2023-05-15T04:32:56.850Z,89.57
2023-05-15T04:35:23.626Z,89.49
2023-05-15T04:37:50.360Z,89.19
2023-05-15T04:40:17.057Z,88.96
2023-05-15T04:42:43.548Z,88.78
2023-05-15T04:45:10.826Z,88.63
2023-05-15T04:47:37.803Z,88.32
2023-05-15T04:50:04.567Z,88.37
2023-05-15T04:52:32.315Z,88.30
2023-05-15T04:54:58.974Z,87.79
2023-05-15T04:57:25.860Z,87.78
2023-05-15T04:59:52.615Z,88.28
2023-05-15T05:02:23.014Z,88.42
2023-05-15T05:04:49.939Z,87.93
2023-05-15T05:07:16.635Z,87.89
2023-05-15T05:09:43.125Z,88.17
2023-05-15T05:12:09.904Z,87.76
2023-05-15T05:14:36.856Z,87.19
2023-05-15T05:17:03.539Z,87.20
2023-05-15T05:19:29.982Z,87.07
2023-05-15T05:21:58.283Z,87.09
2023-05-15T05:24:25.138Z,87.42
2023-05-15T05:26:51.497Z,87.04
2023-05-15T05:29:17.878Z,86.96
2023-05-15T05:34:13.240Z,86.26
2023-05-15T05:36:39.693Z,85.95
2023-05-15T05:39:06.080Z,85.48
2023-05-15T05:41:32.711Z,85.00
2023-05-15T05:43:59.137Z,84.83
2023-05-15T05:46:27.240Z,83.92
2023-05-15T05:48:53.807Z,83.79
2023-05-15T05:51:20.668Z,83.69
2023-05-15T05:53:47.124Z,83.40
2023-05-15T05:56:13.817Z,82.51
2023-05-15T05:58:40.243Z,82.66
2023-05-15T06:01:07.083Z,82.54
2023-05-15T06:03:34.248Z,82.28
2023-05-15T06:06:00.887Z,83.44
2023-05-15T06:08:29.333Z,80.20
2023-05-15T06:10:56.003Z,77.74
2023-05-15T06:13:23.020Z,77.53
2023-05-15T06:15:49.453Z,79.17
2023-05-15T06:18:15.848Z,76.23
2023-05-15T06:20:43.036Z,74.35
2023-05-15T06:23:09.834Z,74.23
2023-05-15T06:25:36.456Z,74.03
2023-05-15T06:28:02.865Z,70.88
2023-05-15T06:30:29.245Z,70.59
2023-05-15T06:32:55.831Z,70.65
2023-05-15T06:35:24.161Z,71.36
2023-05-15T06:37:51.980Z,71.71
2023-05-15T06:40:18.758Z,71.58
2023-05-15T06:42:45.230Z,71.35
2023-05-15T06:45:11.821Z,70.95
2023-05-15T06:47:38.731Z,68.97
2023-05-15T06:50:06.337Z,68.32
2023-05-15T06:52:32.862Z,67.13
2023-05-15T06:54:59.253Z,65.71
2023-05-15T06:57:26.334Z,65.10
2023-05-15T06:59:52.815Z,64.38
2023-05-15T07:02:19.286Z,65.11
2023-05-15T07:04:45.751Z,65.60
2023-05-15T07:07:12.278Z,66.18
2023-05-15T07:09:39.194Z,65.94
2023-05-15T07:12:05.818Z,65.96
2023-05-15T07:14:32.261Z,66.22
2023-05-15T07:16:58.705Z,66.69
2023-05-15T07:19:25.329Z,65.36
2023-05-15T07:21:51.795Z,65.76
2023-05-15T07:24:18.293Z,65.26
2023-05-15T07:26:57.468Z,65.10
2023-05-15T07:29:25.630Z,66.00
2023-05-15T07:31:52.246Z,65.10
2023-05-15T07:34:18.724Z,64.80
2023-05-15T07:36:45.072Z,65.60
2023-05-15T07:39:11.631Z,64.27
2023-05-15T07:41:38.126Z,63.67
2023-05-15T07:44:04.705Z,64.38
2023-05-15T07:46:31.221Z,63.58
2023-05-15T07:48:57.689Z,63.07
2023-05-15T07:51:24.184Z,64.46
2023-05-15T07:53:50.657Z,62.66
2023-05-15T07:56:17.326Z,62.72
2023-05-15T07:58:43.691Z,63.33
2023-05-15T08:01:10.181Z,63.49
2023-05-15T08:03:36.657Z,63.36
2023-05-15T08:06:03.142Z,62.44
2023-05-15T08:08:29.633Z,61.31
2023-05-15T08:10:56.063Z,60.63
2023-05-15T08:13:22.622Z,61.13
2023-05-15T08:15:49.090Z,59.81
2023-05-15T08:18:15.599Z,59.47
2023-05-15T08:20:42.138Z,58.57
2023-05-15T08:23:08.897Z,59.33
2023-05-15T08:25:35.367Z,57.14
2023-05-15T08:28:02.708Z,55.95
2023-05-15T08:30:29.039Z,56.14
2023-05-15T08:32:55.420Z,56.57
2023-05-15T08:35:21.959Z,57.25
2023-05-15T08:37:48.415Z,57.58
2023-05-15T08:40:15.122Z,55.08
2023-05-15T08:42:47.993Z,54.82
2023-05-15T08:45:14.756Z,56.36
2023-05-15T08:47:42.779Z,55.32
2023-05-15T08:50:12.689Z,55.29
2023-05-15T08:52:45.501Z,56.22
2023-05-15T08:55:13.330Z,56.26
2023-05-15T08:57:41.450Z,56.05
2023-05-15T09:00:09.421Z,56.47
2023-05-15T09:02:37.235Z,55.69
2023-05-15T09:05:07.571Z,56.22
2023-05-15T09:07:34.810Z,55.76
2023-05-15T09:10:03.424Z,56.55
2023-05-15T09:12:36.636Z,56.49
2023-05-15T09:15:14.413Z,56.74
2023-05-15T09:17:41.291Z,55.99
2023-05-15T09:20:23.970Z,55.80
2023-05-15T09:22:50.505Z,55.97
2023-05-15T09:25:33.744Z,56.98
2023-05-15T09:28:01.148Z,56.96
2023-05-15T09:30:27.952Z,57.19
2023-05-15T09:32:56.387Z,57.05
2023-05-15T09:35:34.311Z,56.49
2023-05-15T09:38:02.442Z,56.21
2023-05-15T09:40:30.818Z,55.74
2023-05-15T09:42:57.884Z,55.91
2023-05-15T09:45:29.939Z,56.04
2023-05-15T09:47:57.517Z,55.74
2023-05-15T09:50:36.409Z,56.54
2023-05-15T09:53:03.874Z,54.26
2023-05-15T09:55:34.741Z,55.44
2023-05-15T09:58:13.387Z,54.43
2023-05-15T10:00:48.627Z,54.70
2023-05-15T10:03:18.046Z,55.98
2023-05-15T10:05:44.775Z,56.64
2023-05-15T10:08:11.938Z,56.71
2023-05-15T10:10:38.475Z,58.41
2023-05-15T10:13:07.148Z,57.76
2023-05-15T10:15:34.589Z,58.42
2023-05-15T10:18:02.613Z,59.10
2023-05-15T10:20:29.713Z,59.53
2023-05-15T10:22:56.863Z,60.82
2023-05-15T10:25:28.898Z,60.38
2023-05-15T10:27:56.882Z,61.41
2023-05-15T10:30:25.096Z,61.76
2023-05-15T10:32:52.186Z,61.31
2023-05-15T10:35:18.774Z,61.47
2023-05-15T10:37:48.984Z,62.36
2023-05-15T10:40:17.380Z,62.74
2023-05-15T10:42:47.646Z,62.99
2023-05-15T10:45:14.267Z,63.27
2023-05-15T10:47:42.543Z,63.44
2023-05-15T10:50:10.284Z,63.63
2023-05-15T10:52:38.561Z,63.17
2023-05-15T10:55:09.690Z,63.89
2023-05-15T10:57:36.770Z,63.87
2023-05-15T11:00:05.645Z,64.12
2023-05-15T11:02:38.458Z,64.44
2023-05-15T11:05:05.506Z,65.46
2023-05-15T11:07:31.949Z,65.21
2023-05-15T11:09:58.551Z,65.48
2023-05-15T11:12:24.963Z,64.82
2023-05-15T11:14:54.151Z,65.45
2023-05-15T11:17:23.480Z,65.38
2023-05-15T11:19:49.909Z,65.68
2023-05-15T11:22:35.842Z,66.07
2023-05-15T11:25:02.229Z,65.70
2023-05-15T11:27:47.216Z,65.90
2023-05-15T11:30:25.076Z,66.08
2023-05-15T11:32:52.021Z,66.30
2023-05-15T11:35:32.785Z,66.60
2023-05-15T11:38:14.229Z,66.48
2023-05-15T11:40:49.817Z,66.45
2023-05-15T11:43:31.606Z,67.07
2023-05-15T11:45:59.966Z,67.01
2023-05-15T11:48:32.717Z,67.50
2023-05-15T11:51:01.880Z,66.67
2023-05-15T11:53:30.425Z,66.07
2023-05-15T11:55:56.900Z,66.22
2023-05-15T11:58:25.034Z,65.73
2023-05-15T12:00:53.507Z,65.39
2023-05-15T12:03:27.312Z,66.26
2023-05-15T12:05:59.733Z,65.67
2023-05-15T12:08:32.085Z,64.99
2023-05-15T12:11:00.393Z,64.69
2023-05-15T12:13:27.248Z,64.99
2023-05-15T12:15:55.422Z,63.96
2023-05-15T12:18:21.830Z,64.04
2023-05-15T12:20:49.748Z,63.27
2023-05-15T12:23:17.690Z,62.08
2023-05-15T12:25:46.709Z,62.05
2023-05-15T12:28:14.618Z,62.83
2023-05-15T12:30:42.314Z,62.19
2023-05-15T12:33:10.773Z,61.94
2023-05-15T12:35:41.425Z,61.04
2023-05-15T12:38:08.133Z,60.48
2023-05-15T12:40:35.943Z,60.21
2023-05-15T12:43:09.453Z,59.47
2023-05-15T12:45:38.957Z,57.24
2023-05-15T12:48:07.263Z,56.14
2023-05-15T12:50:35.141Z,57.19
2023-05-15T12:53:03.636Z,57.48
2023-05-15T12:55:32.481Z,58.16
2023-05-15T12:58:07.323Z,57.54
2023-05-15T13:00:36.190Z,57.57
2023-05-15T13:03:04.016Z,56.56
2023-05-15T13:05:35.018Z,56.04
2023-05-15T13:08:03.177Z,57.29
2023-05-15T13:10:33.012Z,57.10
2023-05-15T13:12:59.651Z,55.24
2023-05-15T13:15:36.500Z,54.47
2023-05-15T13:18:16.077Z,55.46
2023-05-15T13:20:45.056Z,54.66
2023-05-15T13:23:15.986Z,54.81
2023-05-15T13:25:42.605Z,54.13
2023-05-15T13:28:10.633Z,54.26
2023-05-15T13:30:41.356Z,54.23
2023-05-15T13:33:12.221Z,55.93
2023-05-15T13:35:39.748Z,57.62
2023-05-15T13:38:08.100Z,58.14
2023-05-15T13:40:37.423Z,58.81
2023-05-15T13:43:06.404Z,59.52
2023-05-15T13:45:33.084Z,60.04
2023-05-15T13:47:59.955Z,60.41
2023-05-15T13:50:26.836Z,61.08
2023-05-15T13:52:54.448Z,61.77
2023-05-15T13:55:22.910Z,61.78
2023-05-15T13:57:49.836Z,61.44
2023-05-15T14:00:17.291Z,62.14
2023-05-15T14:02:44.594Z,62.66
2023-05-15T14:05:13.449Z,62.58
2023-05-15T14:07:40.267Z,63.41
2023-05-15T14:10:07.469Z,62.96
2023-05-15T14:12:34.362Z,63.28
2023-05-15T14:15:01.169Z,62.99
2023-05-15T14:17:28.796Z,62.96
2023-05-15T14:19:55.354Z,62.26
2023-05-15T14:22:25.064Z,62.33
2023-05-15T14:24:58.911Z,62.46
2023-05-15T14:27:25.252Z,61.66
2023-05-15T14:29:51.956Z,62.21
2023-05-15T14:32:18.673Z,62.31
2023-05-15T14:34:45.074Z,62.82
2023-05-15T14:37:11.630Z,63.85
2023-05-15T14:39:38.349Z,63.84
2023-05-15T14:42:06.053Z,64.78
2023-05-15T14:44:32.953Z,65.01
2023-05-15T14:47:12.849Z,65.39
2023-05-15T14:49:39.658Z,65.29
2023-05-15T14:52:09.068Z,65.40
2023-05-15T14:54:36.060Z,65.63
2023-05-15T14:57:02.606Z,65.63
2023-05-15T14:59:29.107Z,66.02
2023-05-15T15:01:55.730Z,66.77
2023-05-15T15:04:22.139Z,67.40
2023-05-15T15:06:48.777Z,67.64
2023-05-15T15:09:15.183Z,68.20
2023-05-15T15:11:41.648Z,68.42
2023-05-15T15:14:08.010Z,68.42
2023-05-15T15:16:34.499Z,68.33
2023-05-15T15:19:00.989Z,68.13
2023-05-15T15:21:27.468Z,68.30
2023-05-15T15:23:55.089Z,68.14
2023-05-15T15:26:21.769Z,68.70
2023-05-15T15:28:48.384Z,68.88
2023-05-15T15:31:15.385Z,69.09
2023-05-15T15:33:41.774Z,69.16
2023-05-15T15:36:08.243Z,68.97
2023-05-15T15:38:34.776Z,69.00
2023-05-15T15:41:03.552Z,69.03
2023-05-15T15:43:29.999Z,69.44
2023-05-15T15:45:56.493Z,69.83
2023-05-15T15:48:23.515Z,70.07
2023-05-15T15:50:52.049Z,70.37
2023-05-15T15:53:18.471Z,70.39
2023-05-15T15:55:47.025Z,70.80
2023-05-15T15:58:13.632Z,70.79
2023-05-15T16:00:41.089Z,70.73
2023-05-15T16:03:07.792Z,71.18
2023-05-15T16:05:34.368Z,71.27
2023-05-15T16:08:00.781Z,71.19
2023-05-15T16:10:27.182Z,71.43
2023-05-15T16:12:53.543Z,71.38
2023-05-15T16:15:23.768Z,71.60
2023-05-15T16:17:54.935Z,71.22
2023-05-15T16:20:22.205Z,71.24
2023-05-15T16:22:48.730Z,71.42
2023-05-15T16:25:15.188Z,71.28
2023-05-15T16:27:41.653Z,71.45
2023-05-15T16:30:09.278Z,71.56
2023-05-15T16:32:36.156Z,71.73
2023-05-15T16:35:03.176Z,71.84
2023-05-15T16:37:29.575Z,71.79
2023-05-15T16:39:56.257Z,71.78
2023-05-15T16:42:22.646Z,71.40
2023-05-15T16:44:49.081Z,71.30
2023-05-15T16:47:15.522Z,71.34
2023-05-15T16:49:44.138Z,71.58
2023-05-15T16:52:11.465Z,71.71
2023-05-15T16:54:37.918Z,71.68
2023-05-15T16:57:04.649Z,72.05
2023-05-15T16:59:31.217Z,71.69
2023-05-15T17:01:59.130Z,71.58
2023-05-15T17:04:25.734Z,71.18
2023-05-15T17:06:52.179Z,70.75
2023-05-15T17:09:18.678Z,70.34
2023-05-15T17:11:45.281Z,70.45
2023-05-15T17:14:11.647Z,70.69
2023-05-15T17:16:38.074Z,70.51
2023-05-15T17:19:04.640Z,70.87
2023-05-15T17:21:31.694Z,71.22
2023-05-15T17:23:58.171Z,71.54
2023-05-15T17:26:24.805Z,71.55
2023-05-15T17:28:51.222Z,71.59
2023-05-15T17:31:17.721Z,71.86
2023-05-15T17:33:44.224Z,71.89
2023-05-15T17:36:10.817Z,71.95
2023-05-15T17:38:37.188Z,72.14
2023-05-15T17:41:03.599Z,72.41
2023-05-15T17:43:30.027Z,72.54
2023-05-15T17:45:57.608Z,72.65
2023-05-15T17:48:24.162Z,72.82
2023-05-15T17:50:51.643Z,73.09
2023-05-15T17:53:18.039Z,73.34
2023-05-15T17:55:44.410Z,73.65
2023-05-15T17:58:10.760Z,73.84
2023-05-15T18:00:37.186Z,74.23
2023-05-15T18:03:03.783Z,74.56
2023-05-15T18:05:30.556Z,74.79
2023-05-15T18:07:59.493Z,75.08
2023-05-15T18:10:26.096Z,75.20
2023-05-15T18:12:52.803Z,75.42
2023-05-15T18:15:19.306Z,75.58
2023-05-15T18:17:46.290Z,75.80
2023-05-15T18:20:13.101Z,75.82
2023-05-15T18:22:39.770Z,75.79
2023-05-15T18:25:06.515Z,75.75
2023-05-15T18:27:32.926Z,75.88
2023-05-15T18:29:59.316Z,76.12
2023-05-15T18:32:25.871Z,75.91
2023-05-15T18:34:52.270Z,75.86
2023-05-15T18:37:18.798Z,75.69
2023-05-15T18:39:45.250Z,75.81
2023-05-15T18:42:11.642Z,75.62
2023-05-15T18:44:38.221Z,75.70
2023-05-15T18:47:04.991Z,75.59
2023-05-15T18:49:31.417Z,75.48
2023-05-15T18:51:57.917Z,75.46
2023-05-15T18:54:24.472Z,75.50
2023-05-15T18:56:50.924Z,75.18
2023-05-15T18:59:17.299Z,75.45
2023-05-15T19:01:44.986Z,76.09
2023-05-15T19:04:11.996Z,76.00
2023-05-15T19:06:39.170Z,76.22
2023-05-15T19:09:05.701Z,76.46
2023-05-15T19:11:32.187Z,77.06
2023-05-15T19:13:58.583Z,77.49
2023-05-15T19:16:28.385Z,77.71
2023-05-15T19:18:55.491Z,77.98
2023-05-15T19:21:22.355Z,78.33
2023-05-15T19:23:50.336Z,78.53
2023-05-15T19:26:16.835Z,78.77
2023-05-15T19:28:43.372Z,79.60
2023-05-15T19:31:20.376Z,80.10
2023-05-15T19:33:56.521Z,80.32
2023-05-15T19:36:22.892Z,80.83
2023-05-15T19:38:49.318Z,81.24
2023-05-15T19:41:15.723Z,81.44
2023-05-15T19:43:46.214Z,81.36
2023-05-15T19:46:13.526Z,81.37
2023-05-15T19:48:40.042Z,81.13
2023-05-15T19:51:08.150Z,80.28
2023-05-15T19:53:36.515Z,79.87
2023-05-15T19:56:03.805Z,79.71
2023-05-15T19:58:31.188Z,79.65
2023-05-15T20:00:58.103Z,79.83
2023-05-15T20:03:25.823Z,80.14
2023-05-15T20:05:52.734Z,80.20
2023-05-15T20:08:19.123Z,80.22
2023-05-15T20:10:51.110Z,80.50
2023-05-15T20:13:17.509Z,80.85
2023-05-15T20:15:44.378Z,81.25
2023-05-15T20:18:10.896Z,81.92
2023-05-15T20:20:40.336Z,81.95
2023-05-15T20:23:07.316Z,82.20
2023-05-15T20:25:33.725Z,82.56
2023-05-15T20:28:01.142Z,82.58
2023-05-15T20:30:27.970Z,82.70
2023-05-15T20:32:54.730Z,83.18
2023-05-15T20:35:22.506Z,83.25
2023-05-15T20:37:49.418Z,83.42
2023-05-15T20:40:16.620Z,83.57
2023-05-15T20:42:42.987Z,83.59
2023-05-15T20:45:10.137Z,83.79
2023-05-15T20:47:36.591Z,83.75
2023-05-15T20:50:03.500Z,83.44
2023-05-15T20:52:30.515Z,83.25
2023-05-15T20:54:56.952Z,83.07
2023-05-15T20:57:23.379Z,82.98
2023-05-15T20:59:49.892Z,82.76
2023-05-15T21:02:16.399Z,82.81
2023-05-15T21:04:43.054Z,83.04
2023-05-15T21:07:09.766Z,83.04
2023-05-15T21:09:36.129Z,82.92
2023-05-15T21:12:04.065Z,82.62
2023-05-15T21:14:30.821Z,83.04
2023-05-15T21:16:57.687Z,82.85
2023-05-15T21:19:24.455Z,82.50
2023-05-15T21:21:51.124Z,82.70
2023-05-15T21:24:17.817Z,82.39
2023-05-15T21:26:44.298Z,82.41
2023-05-15T21:29:11.200Z,82.12
2023-05-15T21:31:37.753Z,82.25
2023-05-15T21:34:04.387Z,82.04
2023-05-15T21:36:31.258Z,82.19
2023-05-15T21:38:57.698Z,81.84
2023-05-15T21:41:25.991Z,81.92
2023-05-15T21:43:52.605Z,81.45
2023-05-15T21:46:19.322Z,81.00
2023-05-15T21:48:46.554Z,80.87
2023-05-15T21:51:13.034Z,80.40
2023-05-15T21:53:39.535Z,80.21
2023-05-15T21:56:06.571Z,80.13
2023-05-15T21:58:33.086Z,79.73
2023-05-15T22:00:59.642Z,79.73
2023-05-15T22:03:26.278Z,79.37
2023-05-15T22:05:53.141Z,79.36
2023-05-15T22:08:20.094Z,79.05
2023-05-15T22:10:46.475Z,78.80
2023-05-15T22:13:13.072Z,78.94
2023-05-15T22:15:39.498Z,78.63
2023-05-15T22:18:06.191Z,78.43
2023-05-15T22:20:32.780Z,78.25
2023-05-15T22:22:59.651Z,78.04
2023-05-15T22:25:26.176Z,77.57
2023-05-15T22:27:52.589Z,77.56
2023-05-15T22:30:19.281Z,77.40
2023-05-15T22:32:46.167Z,77.24
2023-05-15T22:35:13.290Z,77.24
2023-05-15T22:37:41.916Z,77.27
2023-05-15T22:40:11.066Z,76.65
2023-05-15T22:42:37.794Z,76.96
2023-05-15T22:45:05.914Z,77.16
2023-05-15T22:47:33.145Z,77.06
2023-05-15T22:49:59.693Z,77.00
2023-05-15T22:52:26.284Z,77.17
2023-05-15T22:54:52.868Z,76.98
2023-05-15T22:57:19.420Z,76.95
2023-05-15T22:59:45.837Z,77.05
2023-05-15T23:02:12.360Z,77.20
2023-05-15T23:04:38.945Z,77.26
2023-05-15T23:07:05.403Z,76.86
2023-05-15T23:09:31.827Z,77.21
2023-05-15T23:11:58.291Z,76.67
2023-05-15T23:14:25.467Z,77.21
2023-05-15T23:16:52.176Z,77.31
2023-05-15T23:19:18.886Z,77.33
2023-05-15T23:21:45.344Z,77.58
2023-05-15T23:24:11.759Z,77.39
2023-05-15T23:26:38.273Z,77.39
2023-05-15T23:29:04.682Z,76.73
2023-05-15T23:31:33.562Z,77.20
2023-05-15T23:34:00.001Z,77.01
2023-05-15T23:36:26.479Z,77.05
2023-05-15T23:38:52.918Z,76.79
2023-05-15T23:41:19.594Z,76.60
2023-05-15T23:43:45.949Z,76.63
2023-05-15T23:46:12.442Z,76.52
2023-05-15T23:48:38.941Z,77.17
2023-05-15T23:51:05.445Z,76.94
2023-05-15T23:53:31.800Z,76.75
2023-05-15T23:55:58.369Z,77.05
2023-05-15T23:58:24.780Z,76.91
